createdAt,value
2023-10-11T00:01:07.162Z,15.20
2023-10-11T00:03:35.975Z,15.10
2023-10-11T00:06:07.601Z,14.90
2023-10-11T00:08:42.168Z,14.90
2023-10-11T00:11:11.420Z,14.90
2023-10-11T00:13:42.057Z,15.00
2023-10-11T00:16:12.291Z,15.10
2023-10-11T00:18:44.212Z,15.10
2023-10-11T00:21:18.095Z,14.80
2023-10-11T00:23:50.143Z,14.80
2023-10-11T00:26:19.992Z,14.90
2023-10-11T00:28:48.594Z,14.80
2023-10-11T00:31:19.463Z,14.80
2023-10-11T00:33:50.003Z,14.80
2023-10-11T00:36:25.960Z,14.80
2023-10-11T00:38:54.814Z,14.80
2023-10-11T00:41:26.936Z,14.80
2023-10-11T00:43:56.060Z,14.60
2023-10-11T00:46:29.657Z,14.60
2023-10-11T00:49:06.594Z,14.40
2023-10-11T00:51:37.530Z,14.40
2023-10-11T00:54:07.328Z,14.30
2023-10-11T00:56:36.469Z,14.30
2023-10-11T00:59:10.046Z,14.20
2023-10-11T01:01:39.729Z,14.10
2023-10-11T01:04:10.618Z,14.20
2023-10-11T01:06:41.276Z,14.20
2023-10-11T01:09:17.207Z,14.30
2023-10-11T01:11:47.196Z,14.40
2023-10-11T01:14:15.968Z,14.30
2023-10-11T01:16:44.783Z,14.20
2023-10-11T01:19:17.372Z,13.90
2023-10-11T01:21:52.703Z,14.10
2023-10-11T01:24:21.357Z,14.10
2023-10-11T01:26:50.295Z,14.30
2023-10-11T01:29:19.736Z,14.40
2023-10-11T01:31:48.441Z,14.40
2023-10-11T01:34:17.048Z,14.30
2023-10-11T01:36:47.285Z,14.40
2023-10-11T01:39:16.443Z,14.40
2023-10-11T01:41:47.851Z,14.30
2023-10-11T01:44:16.372Z,14.40
2023-10-11T01:46:44.896Z,14.40
2023-10-11T01:49:13.963Z,14.20
2023-10-11T01:51:48.093Z,14.20
2023-10-11T01:54:18.657Z,14.00
2023-10-11T01:56:47.639Z,13.90
2023-10-11T01:59:17.574Z,13.80
2023-10-11T02:01:59.653Z,13.90
2023-10-11T02:04:30.487Z,14.00
2023-10-11T02:06:59.758Z,13.90
2023-10-11T02:09:29.781Z,14.00
2023-10-11T02:11:59.633Z,14.10
2023-10-11T02:14:29.547Z,14.20
2023-10-11T02:16:58.818Z,14.30
2023-10-11T02:19:27.501Z,14.20
2023-10-11T02:21:56.530Z,14.10
2023-10-11T02:24:27.737Z,14.10
2023-10-11T02:26:59.824Z,14.00
2023-10-11T02:29:29.120Z,14.00
2023-10-11T02:31:59.803Z,13.80
2023-10-11T02:34:28.947Z,13.90
2023-10-11T02:37:05.353Z,13.90
2023-10-11T02:39:43.878Z,13.90
2023-10-11T02:42:20.867Z,13.90
2023-10-11T02:44:50.522Z,13.90
2023-10-11T02:47:24.231Z,14.00
2023-10-11T02:49:55.179Z,13.90
2023-10-11T02:52:31.373Z,13.80
2023-10-11T02:55:00.618Z,13.70
2023-10-11T02:57:31.033Z,13.70
2023-10-11T02:59:59.469Z,13.80
2023-10-11T03:02:31.394Z,13.90
2023-10-11T03:05:02.681Z,13.80
2023-10-11T03:07:34.942Z,13.90
2023-10-11T03:10:04.174Z,13.70
2023-10-11T03:12:39.965Z,13.60
2023-10-11T03:15:13.556Z,13.60
2023-10-11T03:17:45.692Z,13.70
2023-10-11T03:20:37.281Z,13.60
2023-10-11T03:23:12.468Z,13.60
2023-10-11T03:25:45.628Z,13.60
2023-10-11T03:28:16.370Z,13.60
2023-10-11T03:30:45.111Z,13.70
2023-10-11T03:33:14.173Z,13.80
2023-10-11T03:35:45.106Z,13.90
2023-10-11T03:38:19.186Z,14.00
2023-10-11T03:40:57.007Z,13.90
2023-10-11T03:43:28.011Z,13.90
2023-10-11T03:46:01.636Z,13.80
2023-10-11T03:48:31.987Z,13.80
2023-10-11T03:51:01.101Z,13.90
2023-10-11T03:53:33.269Z,13.80
2023-10-11T03:56:03.445Z,13.90
2023-10-11T03:58:39.023Z,13.90
2023-10-11T04:01:13.832Z,13.60
2023-10-11T04:03:43.351Z,13.70
2023-10-11T04:06:22.264Z,13.50
2023-10-11T04:08:57.268Z,13.70
2023-10-11T04:11:39.293Z,13.70
2023-10-11T04:14:18.821Z,13.70
2023-10-11T04:16:48.197Z,13.60
2023-10-11T04:19:22.908Z,13.60
2023-10-11T04:21:57.654Z,13.60
2023-10-11T04:24:28.024Z,13.60
2023-10-11T04:26:59.446Z,13.60
2023-10-11T04:29:33.395Z,13.50
2023-10-11T04:32:16.295Z,13.60
2023-10-11T04:34:56.751Z,13.70
2023-10-11T04:37:30.653Z,13.70
2023-10-11T04:40:17.811Z,13.50
2023-10-11T04:42:46.529Z,13.40
2023-10-11T04:45:24.182Z,13.30
2023-10-11T04:47:56.700Z,13.30
2023-10-11T04:50:26.142Z,13.30
2023-10-11T04:52:57.622Z,13.30
2023-10-11T04:55:36.763Z,13.40
2023-10-11T04:58:09.756Z,13.40
2023-10-11T05:00:45.826Z,13.40
2023-10-11T05:03:17.045Z,13.40
2023-10-11T05:06:00.014Z,13.50
2023-10-11T05:08:52.821Z,13.40
2023-10-11T05:11:33.553Z,13.30
2023-10-11T05:14:11.748Z,13.40
2023-10-11T05:16:46.331Z,13.40
2023-10-11T05:19:16.908Z,13.40
2023-10-11T05:22:03.616Z,13.50
2023-10-11T05:24:45.619Z,13.50
2023-10-11T05:27:27.624Z,13.50
2023-10-11T05:30:11.196Z,13.40
2023-10-11T05:32:51.053Z,13.40
2023-10-11T05:35:48.305Z,13.40
2023-10-11T05:38:46.982Z,13.50
2023-10-11T05:41:32.710Z,13.50
2023-10-11T05:44:19.149Z,13.50
2023-10-11T05:47:05.103Z,13.50
2023-10-11T05:49:52.308Z,13.60
2023-10-11T05:52:21.060Z,13.40
2023-10-11T05:54:51.014Z,13.30
2023-10-11T05:57:20.502Z,13.30
2023-10-11T05:59:49.602Z,13.40
2023-10-11T06:02:20.540Z,13.40
2023-10-11T06:04:51.815Z,13.40
2023-10-11T06:07:22.314Z,13.50
2023-10-11T06:09:54.255Z,13.50
2023-10-11T06:12:27.733Z,13.60
2023-10-11T06:14:57.237Z,13.60
2023-10-11T06:17:41.872Z,13.70
2023-10-11T06:20:24.812Z,13.60
2023-10-11T06:22:53.501Z,13.70
2023-10-11T06:25:46.124Z,13.80
2023-10-11T06:28:15.045Z,13.80
2023-10-11T06:30:47.828Z,13.70
2023-10-11T06:33:20.048Z,13.70
2023-10-11T06:35:50.990Z,13.70
2023-10-11T06:38:19.748Z,13.70
2023-10-11T06:40:55.359Z,13.70
2023-10-11T06:43:24.540Z,13.70
2023-10-11T06:45:52.969Z,13.70
2023-10-11T06:48:23.993Z,13.90
2023-10-11T06:50:54.296Z,14.00
2023-10-11T06:53:22.891Z,14.00
2023-10-11T06:55:51.722Z,13.90
2023-10-11T06:58:21.973Z,14.00
2023-10-11T07:00:50.472Z,14.10
2023-10-11T07:03:29.686Z,14.10
2023-10-11T07:06:01.328Z,14.20
2023-10-11T07:08:37.023Z,14.10
2023-10-11T07:11:17.726Z,14.10
2023-10-11T07:13:56.422Z,14.20
2023-10-11T07:16:28.835Z,14.20
2023-10-11T07:18:59.334Z,14.30
2023-10-11T07:21:49.993Z,14.20
2023-10-11T07:24:33.080Z,14.10
2023-10-11T07:27:09.983Z,14.10
2023-10-11T07:29:47.446Z,14.00
2023-10-11T07:32:20.397Z,14.10
2023-10-11T07:34:50.168Z,14.20
2023-10-11T07:37:27.481Z,14.10
2023-10-11T07:40:02.401Z,14.10
2023-10-11T07:42:38.597Z,14.10
2023-10-11T07:45:14.464Z,14.30
2023-10-11T07:47:47.257Z,14.20
2023-10-11T07:50:23.897Z,14.10
2023-10-11T07:52:54.429Z,14.20
2023-10-11T07:55:27.552Z,14.00
2023-10-11T07:58:01.355Z,14.20
2023-10-11T08:00:31.923Z,14.20
2023-10-11T08:03:04.630Z,14.20
2023-10-11T08:05:38.061Z,14.30
2023-10-11T08:08:08.131Z,14.20
2023-10-11T08:10:37.130Z,14.20
2023-10-11T08:13:06.022Z,14.20
2023-10-11T08:15:39.993Z,14.20
2023-10-11T08:18:09.107Z,14.30
2023-10-11T08:20:40.456Z,14.30
2023-10-11T08:23:10.338Z,14.20
2023-10-11T08:25:41.081Z,14.20
2023-10-11T08:28:16.873Z,14.30
2023-10-11T08:30:47.664Z,14.50
2023-10-11T08:33:16.682Z,14.60
2023-10-11T08:35:47.676Z,14.50
2023-10-11T08:38:19.535Z,14.60
2023-10-11T08:40:51.871Z,14.50
2023-10-11T08:43:20.888Z,14.50
2023-10-11T08:45:51.501Z,14.50
2023-10-11T08:48:20.316Z,14.60
2023-10-11T08:50:55.171Z,14.50
2023-10-11T08:53:26.496Z,14.70
2023-10-11T08:55:58.143Z,14.70
2023-10-11T08:58:29.222Z,14.70
2023-10-11T09:01:02.610Z,14.90
2023-10-11T09:03:34.121Z,14.90
2023-10-11T09:06:04.038Z,15.00
2023-10-11T09:08:37.211Z,15.20
2023-10-11T09:11:14.242Z,15.40
2023-10-11T09:13:43.446Z,15.30
2023-10-11T09:16:36.834Z,15.30
2023-10-11T09:19:12.183Z,15.40
2023-10-11T09:21:44.298Z,15.50
2023-10-11T09:24:28.783Z,16.00
2023-10-11T09:27:15.875Z,16.10
2023-10-11T09:29:45.320Z,16.10
2023-10-11T09:32:15.042Z,16.50
2023-10-11T09:34:46.416Z,16.80
2023-10-11T09:37:15.019Z,17.10
2023-10-11T09:39:45.635Z,17.20
2023-10-11T09:42:15.457Z,16.80
2023-10-11T09:44:47.464Z,17.00
2023-10-11T09:47:18.703Z,16.90
2023-10-11T09:49:49.218Z,17.20
2023-10-11T09:52:19.200Z,17.10
2023-10-11T09:54:52.477Z,17.50
2023-10-11T09:57:30.521Z,17.70
2023-10-11T10:00:10.218Z,17.90
2023-10-11T10:02:40.176Z,17.90
2023-10-11T10:05:09.269Z,17.80
2023-10-11T10:07:50.069Z,17.60
2023-10-11T10:10:27.133Z,17.90
2023-10-11T10:13:00.390Z,17.60
2023-10-11T10:15:34.090Z,17.50
2023-10-11T10:18:24.540Z,18.10
2023-10-11T10:21:03.758Z,18.70
2023-10-11T10:23:39.602Z,18.10
2023-10-11T10:26:41.034Z,18.50
2023-10-11T10:29:13.133Z,18.20
2023-10-11T10:32:10.263Z,18.50
2023-10-11T10:34:43.395Z,18.60
2023-10-11T10:37:50.753Z,18.60
2023-10-11T10:40:26.037Z,18.80
2023-10-11T10:43:22.143Z,19.00
2023-10-11T10:45:50.538Z,18.60
2023-10-11T10:48:21.116Z,18.80
2023-10-11T10:50:56.345Z,19.00
2023-10-11T10:53:29.076Z,19.10
2023-10-11T10:55:59.601Z,19.20
2023-10-11T10:58:29.012Z,19.50
2023-10-11T11:01:01.148Z,19.90
2023-10-11T11:03:34.082Z,19.70
2023-10-11T11:06:04.968Z,19.80
2023-10-11T11:08:33.397Z,19.60
2023-10-11T11:11:19.941Z,20.10
2023-10-11T11:13:51.913Z,19.90
2023-10-11T11:16:21.895Z,19.80
2023-10-11T11:18:49.579Z,20.10
2023-10-11T11:21:21.896Z,20.10
2023-10-11T11:23:50.935Z,19.90
2023-10-11T11:26:32.062Z,20.00
2023-10-11T11:29:12.940Z,20.20
2023-10-11T11:31:53.978Z,20.50
2023-10-11T11:34:29.770Z,20.60
2023-10-11T11:37:14.174Z,20.40
2023-10-11T11:39:52.979Z,20.20
2023-10-11T11:42:21.491Z,20.30
2023-10-11T11:44:52.026Z,20.60
2023-10-11T11:47:26.159Z,20.70
2023-10-11T11:49:55.945Z,20.70
2023-10-11T11:52:24.858Z,20.50
2023-10-11T11:54:52.343Z,20.80
2023-10-11T11:57:31.288Z,20.70
2023-10-11T12:00:06.430Z,20.70
2023-10-11T12:02:37.289Z,20.80
2023-10-11T12:05:06.059Z,20.70
2023-10-11T12:07:34.989Z,20.40
2023-10-11T12:10:12.204Z,20.20
2023-10-11T12:12:41.180Z,20.30
2023-10-11T12:15:17.780Z,20.40
2023-10-11T12:17:46.525Z,20.30
2023-10-11T12:20:17.790Z,20.40
2023-10-11T12:22:46.286Z,20.40
2023-10-11T12:25:15.036Z,20.50
2023-10-11T12:27:43.586Z,20.40
2023-10-11T12:30:21.292Z,20.30
2023-10-11T12:32:50.292Z,20.30
2023-10-11T12:35:19.000Z,20.20
2023-10-11T12:37:47.646Z,20.20
2023-10-11T12:40:23.534Z,20.30
2023-10-11T12:42:54.199Z,20.10
2023-10-11T12:45:33.532Z,20.00
2023-10-11T12:48:09.221Z,20.00
2023-10-11T12:50:45.872Z,20.10
2023-10-11T12:53:16.596Z,20.10
2023-10-11T12:55:46.885Z,20.00
2023-10-11T12:58:15.792Z,20.10
2023-10-11T13:00:52.320Z,20.10
2023-10-11T13:03:26.537Z,20.20
2023-10-11T13:05:55.390Z,20.20
2023-10-11T13:08:27.749Z,20.30
2023-10-11T13:10:57.104Z,20.30
2023-10-11T13:13:26.374Z,20.40
2023-10-11T13:16:00.514Z,20.50
2023-10-11T13:18:30.260Z,20.50
2023-10-11T13:21:00.731Z,20.60
2023-10-11T13:23:32.533Z,20.70
2023-10-11T13:26:02.630Z,20.70
2023-10-11T13:28:34.492Z,20.70
2023-10-11T13:31:07.723Z,20.70
2023-10-11T13:33:37.284Z,20.70
2023-10-11T13:36:09.431Z,20.70
2023-10-11T13:38:40.476Z,20.60
2023-10-11T13:41:13.499Z,20.60
2023-10-11T13:43:42.454Z,20.60
2023-10-11T13:46:14.867Z,20.70
2023-10-11T13:48:44.392Z,20.60
2023-10-11T13:51:18.908Z,20.60
2023-10-11T13:53:48.216Z,20.60
2023-10-11T13:56:22.752Z,20.60
2023-10-11T13:58:53.935Z,20.50
2023-10-11T14:01:44.710Z,20.50
2023-10-11T14:04:17.204Z,20.50
2023-10-11T14:07:01.205Z,20.60
2023-10-11T14:09:31.844Z,20.60
2023-10-11T14:12:00.712Z,20.50
2023-10-11T14:14:40.657Z,20.50
2023-10-11T14:17:16.774Z,20.50
2023-10-11T14:19:47.079Z,20.50
2023-10-11T14:22:18.760Z,20.50
2023-10-11T14:24:49.785Z,20.60
2023-10-11T14:27:20.268Z,20.60
2023-10-11T14:29:49.387Z,20.60
2023-10-11T14:32:19.348Z,20.60
2023-10-11T14:34:49.103Z,20.60
2023-10-11T14:37:20.759Z,20.60
2023-10-11T14:39:50.182Z,20.60
2023-10-11T14:42:19.507Z,20.60
2023-10-11T14:44:49.091Z,20.70
2023-10-11T14:47:18.989Z,20.70
2023-10-11T14:49:47.571Z,20.70
2023-10-11T14:52:15.201Z,20.70
2023-10-11T14:54:47.265Z,20.60
2023-10-11T14:57:16.098Z,20.60
2023-10-11T14:59:44.582Z,20.70
2023-10-11T15:02:13.142Z,20.70
2023-10-11T15:04:43.031Z,20.70
2023-10-11T15:07:11.748Z,20.70
2023-10-11T15:09:40.292Z,20.70
2023-10-11T15:12:08.981Z,20.70
2023-10-11T15:14:37.559Z,20.70
2023-10-11T15:17:11.561Z,20.70
2023-10-11T15:19:39.977Z,20.70
2023-10-11T15:22:10.314Z,20.80
2023-10-11T15:24:40.703Z,20.80
2023-10-11T15:27:09.434Z,20.80
2023-10-11T15:29:37.983Z,20.70
2023-10-11T15:32:06.688Z,20.70
2023-10-11T15:34:35.258Z,20.60
2023-10-11T15:37:03.929Z,20.50
2023-10-11T15:39:33.904Z,20.40
2023-10-11T15:42:07.877Z,20.30
2023-10-11T15:44:36.597Z,20.20
2023-10-11T15:47:05.822Z,20.00
2023-10-11T15:49:34.450Z,20.00
2023-10-11T15:52:03.454Z,20.00
2023-10-11T15:54:34.379Z,19.90
2023-10-11T15:57:05.082Z,19.90
2023-10-11T15:59:33.545Z,19.80
2023-10-11T16:02:07.076Z,19.70
2023-10-11T16:04:36.207Z,19.70
2023-10-11T16:07:06.715Z,19.60
2023-10-11T16:09:37.248Z,19.60
2023-10-11T16:12:09.309Z,19.50
2023-10-11T16:14:37.764Z,19.40
2023-10-11T16:17:06.254Z,19.40
2023-10-11T16:19:35.275Z,19.40
2023-10-11T16:22:03.786Z,19.20
2023-10-11T16:24:32.266Z,19.20
2023-10-11T16:27:02.220Z,19.10
2023-10-11T16:29:30.995Z,19.10
2023-10-11T16:31:59.979Z,19.00
2023-10-11T16:34:28.480Z,19.00
2023-10-11T16:36:57.016Z,19.00
2023-10-11T16:39:36.083Z,18.90
2023-10-11T16:42:06.985Z,18.90
2023-10-11T16:44:38.896Z,18.80
2023-10-11T16:47:10.438Z,18.70
2023-10-11T16:49:39.199Z,18.70
2023-10-11T16:52:11.120Z,18.70
2023-10-11T16:54:39.770Z,18.60
2023-10-11T16:57:09.900Z,18.60
2023-10-11T16:59:40.285Z,18.50
2023-10-11T17:02:08.885Z,18.50
2023-10-11T17:04:38.732Z,18.40
2023-10-11T17:07:09.611Z,18.40
2023-10-11T17:09:38.345Z,18.40
2023-10-11T17:12:11.542Z,18.50
2023-10-11T17:14:41.623Z,18.30
2023-10-11T17:17:10.234Z,18.30
2023-10-11T17:19:38.766Z,18.30
2023-10-11T17:22:07.263Z,18.30
2023-10-11T17:24:35.888Z,18.40
2023-10-11T17:27:05.522Z,18.30
2023-10-11T17:29:34.228Z,18.20
2023-10-11T17:32:04.114Z,18.20
2023-10-11T17:34:32.794Z,18.20
2023-10-11T17:37:01.317Z,18.20
2023-10-11T17:39:30.941Z,18.20
2023-10-11T17:42:02.498Z,18.10
2023-10-11T17:44:32.422Z,18.10
2023-10-11T17:47:02.113Z,18.10
2023-10-11T17:49:32.105Z,18.00
2023-10-11T17:52:00.814Z,18.00
2023-10-11T17:54:30.428Z,18.00
2023-10-11T17:56:59.167Z,18.00
2023-10-11T17:59:27.689Z,17.90
2023-10-11T18:01:56.425Z,17.90
2023-10-11T18:04:25.151Z,17.90
2023-10-11T18:06:55.197Z,17.90
2023-10-11T18:09:23.718Z,17.90
2023-10-11T18:11:52.275Z,17.80
2023-10-11T18:14:21.404Z,17.80
2023-10-11T18:16:50.104Z,17.80
2023-10-11T18:19:21.361Z,17.80
2023-10-11T18:21:49.909Z,17.80
2023-10-11T18:24:20.127Z,17.70
2023-10-11T18:26:49.278Z,17.60
2023-10-11T18:29:18.621Z,17.60
2023-10-11T18:31:49.313Z,17.70
2023-10-11T18:34:18.914Z,17.70
2023-10-11T18:36:47.856Z,17.80
2023-10-11T18:39:19.646Z,17.80
2023-10-11T18:41:49.703Z,17.80
2023-10-11T18:44:18.454Z,17.80
2023-10-11T18:46:47.674Z,17.70
2023-10-11T18:49:16.955Z,17.60
2023-10-11T18:51:45.906Z,17.60
2023-10-11T18:54:14.846Z,17.60
2023-10-11T18:56:43.430Z,17.60
2023-10-11T18:59:13.353Z,17.40
2023-10-11T19:01:41.877Z,17.30
2023-10-11T19:04:13.552Z,17.40
2023-10-11T19:06:43.181Z,17.30
2023-10-11T19:09:14.254Z,17.30
2023-10-11T19:11:44.597Z,17.20
2023-10-11T19:14:15.884Z,17.20
2023-10-11T19:16:44.623Z,17.20
2023-10-11T19:19:13.527Z,17.20
2023-10-11T19:21:42.126Z,17.20
2023-10-11T19:24:10.840Z,17.10
2023-10-11T19:26:39.918Z,17.10
2023-10-11T19:29:09.827Z,17.10
2023-10-11T19:31:40.020Z,17.00
2023-10-11T19:34:09.050Z,16.90
2023-10-11T19:36:38.186Z,16.80
2023-10-11T19:39:07.776Z,16.90
2023-10-11T19:41:38.438Z,16.90
2023-10-11T19:44:07.835Z,16.90
2023-10-11T19:46:36.315Z,17.00
2023-10-11T19:49:08.172Z,16.80
2023-10-11T19:51:36.889Z,16.80
2023-10-11T19:54:05.827Z,16.70
2023-10-11T19:56:34.493Z,16.80
2023-10-11T19:59:04.088Z,16.70
2023-10-11T20:01:33.594Z,16.50
2023-10-11T20:04:05.184Z,16.60
2023-10-11T20:06:35.356Z,16.60
2023-10-11T20:09:03.907Z,16.60
2023-10-11T20:11:34.654Z,16.50
2023-10-11T20:14:03.308Z,16.50
2023-10-11T20:16:31.842Z,16.50
2023-10-11T20:19:00.451Z,16.40
2023-10-11T20:21:29.015Z,16.60
2023-10-11T20:23:58.997Z,16.60
2023-10-11T20:26:30.469Z,16.60
2023-10-11T20:29:01.317Z,16.60
2023-10-11T20:31:30.155Z,16.60
2023-10-11T20:33:59.509Z,16.50
2023-10-11T20:36:28.628Z,16.50
2023-10-11T20:38:58.717Z,16.40
2023-10-11T20:41:27.168Z,16.30
2023-10-11T20:43:56.112Z,16.30
2023-10-11T20:46:24.788Z,16.30
2023-10-11T20:48:56.247Z,16.30
2023-10-11T20:51:25.622Z,16.20
2023-10-11T20:53:56.124Z,16.10
2023-10-11T20:56:29.338Z,16.20
2023-10-11T20:59:00.357Z,16.20
2023-10-11T21:01:29.017Z,16.20
2023-10-11T21:03:57.978Z,16.10
2023-10-11T21:06:26.882Z,16.10
2023-10-11T21:08:55.620Z,16.10
2023-10-11T21:11:27.125Z,16.00
2023-10-11T21:13:55.864Z,15.90
2023-10-11T21:16:24.373Z,15.90
2023-10-11T21:18:53.397Z,15.90
2023-10-11T21:21:24.501Z,15.90
2023-10-11T21:23:55.416Z,15.70
2023-10-11T21:26:25.705Z,15.80
2023-10-11T21:28:55.282Z,15.80
2023-10-11T21:31:24.339Z,15.80
2023-10-11T21:33:53.553Z,15.70
2023-10-11T21:36:22.439Z,15.70
2023-10-11T21:38:51.095Z,15.80
2023-10-11T21:41:22.493Z,15.70
2023-10-11T21:43:54.281Z,15.60
2023-10-11T21:46:23.194Z,15.60
2023-10-11T21:48:51.862Z,15.60
2023-10-11T21:51:20.555Z,15.60
2023-10-11T21:53:49.073Z,15.60
2023-10-11T21:56:17.600Z,15.60
2023-10-11T21:58:48.145Z,15.60
2023-10-11T22:01:25.409Z,15.60
2023-10-11T22:03:56.786Z,15.60
2023-10-11T22:06:25.690Z,15.50
2023-10-11T22:08:54.304Z,15.40
2023-10-11T22:11:26.571Z,15.30
2023-10-11T22:13:57.862Z,15.30
2023-10-11T22:16:28.012Z,15.30
2023-10-11T22:19:00.116Z,15.30
2023-10-11T22:21:28.998Z,15.30
2023-10-11T22:23:57.490Z,15.30
2023-10-11T22:26:27.819Z,15.30
2023-10-11T22:28:56.378Z,15.30
2023-10-11T22:31:25.301Z,15.20
2023-10-11T22:33:56.083Z,15.20
2023-10-11T22:36:28.278Z,15.10
2023-10-11T22:38:58.899Z,15.10
2023-10-11T22:41:27.454Z,15.10
2023-10-11T22:43:56.877Z,15.00
2023-10-11T22:46:26.258Z,15.10
2023-10-11T22:48:56.307Z,15.10
2023-10-11T22:51:28.823Z,15.00
2023-10-11T22:54:01.977Z,15.00
2023-10-11T22:56:32.367Z,14.90
2023-10-11T22:59:05.566Z,14.80
2023-10-11T23:01:34.647Z,14.90
2023-10-11T23:04:05.149Z,14.90
2023-10-11T23:06:34.296Z,14.90
2023-10-11T23:09:05.015Z,14.90
2023-10-11T23:11:34.339Z,14.90
2023-10-11T23:14:02.843Z,14.80
2023-10-11T23:16:36.470Z,14.90
2023-10-11T23:19:21.004Z,14.80
2023-10-11T23:21:52.700Z,14.80
2023-10-11T23:24:32.455Z,14.80
2023-10-11T23:27:02.661Z,14.80
2023-10-11T23:29:34.935Z,14.80
2023-10-11T23:32:04.801Z,14.70
2023-10-11T23:34:34.789Z,14.70
2023-10-11T23:37:03.846Z,14.70
2023-10-11T23:39:35.978Z,14.70
2023-10-11T23:42:15.727Z,14.70
2023-10-11T23:44:47.213Z,14.70
2023-10-11T23:47:29.361Z,14.80
2023-10-11T23:49:59.616Z,14.70
2023-10-11T23:52:30.664Z,14.70
2023-10-11T23:55:07.436Z,14.80
2023-10-11T23:57:47.217Z,14.80
